Time;durP1;ratioP1;P1;durP2;ratioP2;P2;SDS_P1;SDS_P2;PMS_P1;PMS_P2;Temp;Humidity;BMP_temperature;BMP_pressure;BME280_temperature;BME280_humidity;BME280_pressure;Samples;Min_cycle;Max_cycle;Signal;HPM_P1;HPM_P2
2022/12/29 00:01:28;;;;;;;3.08;1.90;;;;;;;9.88;100.00;99979.72;5013790;28;20051;-75
2022/12/29 00:03:54;;;;;;;2.70;1.90;;;;;;;9.85;100.00;99963.72;5008496;28;20481;-76
2022/12/29 00:06:19;;;;;;;2.10;1.50;;;;;;;9.87;100.00;99969.88;5020275;28;20033;-77
2022/12/29 00:08:45;;;;;;;1.73;1.52;;;;;;;9.90;100.00;99966.91;5025250;28;20038;-76
2022/12/29 00:11:13;;;;;;;1.48;1.17;;;;;;;9.90;100.00;99966.03;5008856;28;20026;-76
2022/12/29 00:16:23;;;;;;;4.22;1.45;;;;;;;9.87;100.00;99949.97;5011030;28;20045;-76
2022/12/29 00:18:48;;;;;;;2.92;1.48;;;;;;;9.81;100.00;99945.06;5028378;28;20372;-76
2022/12/29 00:35:10;;;;;;;2.72;1.40;;;;;;;9.57;100.00;99943.41;5027996;28;20116;-77
2022/12/29 00:45:57;;;;;;;1.90;1.05;;;;;;;9.38;100.00;99916.94;5014219;28;20045;-76
2022/12/29 00:51:07;;;;;;;1.83;0.80;;;;;;;9.33;100.00;99912.88;5025955;28;20072;-75
2022/12/29 00:53:33;;;;;;;2.55;2.03;;;;;;;9.32;100.00;99913.84;5025938;28;20033;-76
2022/12/29 00:55:58;;;;;;;2.45;1.33;;;;;;;9.29;100.00;99908.69;5007337;28;20117;-75
2022/12/29 00:58:30;;;;;;;2.20;1.40;;;;;;;9.27;100.00;99905.22;5007396;28;20026;-74
2022/12/29 01:01:07;;;;;;;2.00;1.80;;;;;;;9.28;100.00;99915.06;5008031;28;20034;-74
2022/12/29 01:03:36;;;;;;;3.55;1.42;;;;;;;9.28;100.00;99909.63;5006492;28;20091;-75
2022/12/29 01:06:08;;;;;;;2.03;1.83;;;;;;;9.27;100.00;99897.06;5016897;28;20044;-75
2022/12/29 01:08:36;;;;;;;3.30;2.00;;;;;;;9.25;100.00;99894.50;5009694;28;20030;-75
2022/12/29 01:11:06;;;;;;;3.67;2.03;;;;;;;9.22;100.00;99883.00;5026853;28;20444;-75
2022/12/29 01:13:31;;;;;;;3.10;2.15;;;;;;;9.22;100.00;99883.88;5026890;28;20033;-75
2022/12/29 01:15:57;;;;;;;4.05;2.05;;;;;;;9.23;100.00;99888.31;5025401;28;20389;-75
2022/12/29 01:18:24;;;;;;;3.42;1.77;;;;;;;9.23;100.00;99877.44;5010900;28;20052;-76
2022/12/29 01:20:51;;;;;;;2.60;2.05;;;;;;;9.24;100.00;99884.63;5005202;28;20041;-75
2022/12/29 01:23:16;;;;;;;2.53;2.05;;;;;;;9.30;100.00;99886.81;5008692;28;20041;-76
2022/12/29 01:25:44;;;;;;;2.17;1.98;;;;;;;9.37;100.00;99879.91;5021091;28;20056;-75
2022/12/29 01:28:09;;;;;;;2.67;1.90;;;;;;;9.42;100.00;99874.09;5006621;28;20478;-76
2022/12/29 01:30:35;;;;;;;3.78;1.98;;;;;;;9.41;100.00;99881.34;5012063;28;20470;-75
2022/12/29 01:33:01;;;;;;;3.22;1.80;;;;;;;9.37;100.00;99866.34;5039325;28;20033;-75
2022/12/29 01:35:27;;;;;;;2.75;1.55;;;;;;;9.37;100.00;99869.06;5011581;28;20437;-75
2022/12/29 01:37:52;;;;;;;3.22;1.63;;;;;;;9.38;100.00;99864.50;5013881;28;20041;-76
2022/12/29 01:40:18;;;;;;;3.33;1.83;;;;;;;9.41;100.00;99854.22;5018063;28;20013;-76
2022/12/29 01:42:43;;;;;;;2.30;1.20;;;;;;;9.45;100.00;99871.97;5008326;28;20094;-77
2022/12/29 01:45:11;;;;;;;1.55;1.38;;;;;;;9.50;100.00;99865.31;5011806;28;20118;-77
2022/12/29 01:47:47;;;;;;;1.88;1.10;;;;;;;9.53;100.00;99870.47;5016564;28;20033;-76
2022/12/29 01:50:28;;;;;;;2.00;1.10;;;;;;;9.55;100.00;99868.50;5025624;28;20066;-76
2022/12/29 01:53:01;;;;;;;3.40;1.20;;;;;;;9.55;100.00;99869.34;5027402;28;20044;-76
2022/12/29 01:55:31;;;;;;;3.92;1.50;;;;;;;9.59;100.00;99870.81;5009894;28;20392;-77
2022/12/29 01:58:01;;;;;;;3.60;1.38;;;;;;;9.60;100.00;99875.25;5039333;28;20049;-77
2022/12/29 02:00:26;;;;;;;4.85;1.13;;;;;;;9.59;100.00;99865.38;5038624;28;20492;-76
2022/12/29 02:02:53;;;;;;;1.63;0.98;;;;;;;9.65;100.00;99881.19;5007553;28;20380;-77
2022/12/29 02:05:57;;;;;;;2.78;1.60;;;;;;;9.71;100.00;99867.09;5010973;28;20037;-76
2022/12/29 02:08:23;;;;;;;;;;;;;;;9.74;100.00;99851.50;5014774;28;20679;-76
2022/12/29 02:10:48;;;;;;;1.52;1.30;;;;;;;9.73;100.00;99864.22;5007464;28;19917;-76
2022/12/29 02:13:17;;;;;;;1.70;1.20;;;;;;;9.76;100.00;99871.25;5011416;28;20029;-76
2022/12/29 02:16:21;;;;;;;3.80;1.10;;;;;;;9.81;100.00;99869.88;5004576;28;20037;-75
2022/12/29 02:19:24;;;;;;;5.80;1.60;;;;;;;9.83;100.00;99862.44;5001443;28;20061;-76
2022/12/29 02:22:13;;;;;;;;;;;;;;;9.85;100.00;99870.47;5005717;28;20045;-75
2022/12/29 02:24:48;;;;;;;1.55;0.98;;;;;;;9.88;100.00;99872.91;5014516;28;20399;-75
2022/12/29 02:27:28;;;;;;;3.70;1.30;;;;;;;9.90;100.00;99863.66;5025720;28;20068;-75
2022/12/29 02:30:03;;;;;;;2.30;1.08;;;;;;;9.96;100.00;99865.84;5007210;28;20474;-75
2022/12/29 02:32:55;;;;;;;3.35;1.02;;;;;;;9.97;100.00;99855.84;5005832;28;20553;-75
2022/12/29 02:35:44;;;;;;;3.75;1.00;;;;;;;9.96;100.00;99846.81;5009102;28;20041;-75
2022/12/29 02:38:47;;;;;;;2.97;1.00;;;;;;;9.99;100.00;99855.72;5025129;28;20369;-75
2022/12/29 02:41:17;;;;;;;4.10;1.10;;;;;;;9.91;100.00;99849.06;5026014;28;20048;-75
2022/12/29 02:44:02;;;;;;;1.67;1.08;;;;;;;9.92;100.00;99858.09;5024425;28;20049;-75
2022/12/29 02:46:51;;;;;;;2.63;0.95;;;;;;;9.90;100.00;99852.78;4991912;28;20038;-75
2022/12/29 02:49:27;;;;;;;3.85;1.00;;;;;;;9.89;100.00;99845.66;5009742;28;20049;-76
2022/12/29 02:52:03;;;;;;;2.00;0.98;;;;;;;9.92;100.00;99842.63;5004848;28;20060;-76
2022/12/29 02:54:41;;;;;;;5.03;1.13;;;;;;;9.89;100.00;99853.78;5012648;28;20029;-76
2022/12/29 02:57:20;;;;;;;3.22;0.93;;;;;;;9.90;100.00;99847.34;5025163;28;20037;-75
2022/12/29 02:59:52;;;;;;;1.80;0.90;;;;;;;9.86;100.00;99835.03;5023400;28;20038;-75
2022/12/29 03:03:04;;;;;;;1.90;1.00;;;;;;;9.86;100.00;99843.19;5017803;28;20120;-75
2022/12/29 03:06:08;;;;;;;1.48;1.10;;;;;;;9.84;100.00;99842.47;5004008;28;20053;-76
2022/12/29 03:08:54;;;;;;;4.50;1.00;;;;;;;9.80;100.00;99835.56;4945905;28;20428;-76
2022/12/29 03:17:23;;;;;;;2.20;1.00;;;;;;;9.74;100.00;99836.06;5006804;28;20029;-76
2022/12/29 03:19:52;;;;;;;1.58;1.00;;;;;;;9.73;100.00;99833.50;5004432;28;20103;-75
2022/12/29 03:22:27;;;;;;;4.35;1.15;;;;;;;9.75;100.00;99821.53;5038248;28;20400;-76
2022/12/29 03:25:10;;;;;;;2.83;1.00;;;;;;;9.77;100.00;99845.81;5017483;28;20123;-76
2022/12/29 03:27:43;;;;;;;4.07;1.00;;;;;;;9.78;100.00;99831.25;5026417;28;20037;-75
2022/12/29 03:30:11;;;;;;;3.75;1.23;;;;;;;9.79;100.00;99824.81;5017845;28;20034;-77
2022/12/29 03:32:42;;;;;;;1.13;1.00;;;;;;;9.76;100.00;99825.94;5008714;28;20057;-76
2022/12/29 03:35:12;;;;;;;1.60;1.00;;;;;;;9.74;100.00;99827.91;5010857;28;20112;-76
2022/12/29 03:37:45;;;;;;;2.05;0.95;;;;;;;9.71;100.00;99829.06;5027338;28;20497;-76
2022/12/29 03:40:11;;;;;;;2.45;1.15;;;;;;;9.67;100.00;99819.44;5013133;28;20041;-76
2022/12/29 03:42:39;;;;;;;4.10;0.88;;;;;;;9.63;100.00;99815.25;5008545;28;20548;-75
2022/12/29 03:45:06;;;;;;;3.97;2.17;;;;;;;9.62;100.00;99829.84;5019544;28;20136;-76
2022/12/29 03:47:32;;;;;;;2.50;1.05;;;;;;;9.55;100.00;99838.63;5018837;28;20536;-75
2022/12/29 03:49:57;;;;;;;2.97;1.20;;;;;;;9.53;100.00;99827.91;5007686;28;20021;-75
2022/12/29 03:52:23;;;;;;;4.82;1.00;;;;;;;9.47;100.00;99824.84;5007725;28;20033;-76
2022/12/29 03:54:51;;;;;;;7.43;1.10;;;;;;;9.43;100.00;99833.25;5018213;28;20032;-75
2022/12/29 03:57:16;;;;;;;2.45;1.00;;;;;;;9.42;100.00;99839.69;5028784;28;20038;-75
2022/12/29 03:59:49;;;;;;;1.50;0.95;;;;;;;9.43;100.00;99816.09;5026834;28;20440;-75
2022/12/29 04:02:15;;;;;;;3.35;1.30;;;;;;;9.42;100.00;99830.69;5021819;28;20030;-76
2022/12/29 04:04:41;;;;;;;3.35;1.10;;;;;;;9.44;100.00;99844.97;5023554;28;20397;-75
2022/12/29 04:07:06;;;;;;;1.30;1.10;;;;;;;9.41;100.00;99848.78;5020542;28;20596;-75
2022/12/29 04:09:31;;;;;;;5.80;1.40;;;;;;;9.42;100.00;99841.53;5015404;28;20523;-75
2022/12/29 04:11:57;;;;;;;3.90;1.00;;;;;;;9.43;100.00;99835.09;5015980;28;20032;-75
2022/12/29 04:14:23;;;;;;;2.25;1.00;;;;;;;9.39;100.00;99833.63;5041486;28;20034;-75
2022/12/29 04:16:48;;;;;;;3.85;1.05;;;;;;;9.32;100.00;99840.56;5039616;28;20048;-74
2022/12/29 04:19:14;;;;;;;4.00;1.00;;;;;;;9.26;100.00;99855.50;5007715;28;20041;-76
2022/12/29 04:21:40;;;;;;;1.90;1.20;;;;;;;9.23;100.00;99860.31;5007074;28;20080;-76
2022/12/29 04:24:06;;;;;;;5.25;1.10;;;;;;;9.19;100.00;99865.16;5013488;28;20496;-75
2022/12/29 04:26:33;;;;;;;6.40;1.40;;;;;;;9.12;100.00;99867.50;5007473;28;20120;-75
2022/12/29 04:29:19;;;;;;;4.00;0.98;;;;;;;9.08;100.00;99857.00;5007449;28;20069;-74
2022/12/29 04:32:02;;;;;;;1.55;1.10;;;;;;;9.03;100.00;99851.09;5009111;28;20449;-76
2022/12/29 04:34:29;;;;;;;7.88;1.20;;;;;;;8.98;100.00;99856.91;5006497;28;20057;-76
2022/12/29 04:36:54;;;;;;;5.05;1.67;;;;;;;8.93;100.00;99861.84;5022453;28;20088;-76
2022/12/29 04:39:20;;;;;;;6.93;1.30;;;;;;;8.97;100.00;99867.91;5019660;28;20033;-74
2022/12/29 04:41:46;;;;;;;2.50;1.17;;;;;;;8.97;100.00;99884.16;5008014;28;20028;-75
2022/12/29 04:44:16;;;;;;;1.85;1.00;;;;;;;8.94;100.00;99861.72;5011382;28;20131;-75
2022/12/29 04:46:50;;;;;;;4.22;1.05;;;;;;;8.90;100.00;99854.81;5014131;28;20046;-76
2022/12/29 04:49:34;;;;;;;3.92;1.52;;;;;;;8.86;100.00;99880.50;5006360;28;20077;-75
2022/12/29 04:52:21;;;;;;;4.55;1.40;;;;;;;8.83;100.00;99882.56;5006500;28;20120;-75
2022/12/29 04:54:46;;;;;;;6.07;1.40;;;;;;;8.79;100.00;99887.38;5017364;28;20485;-76
2022/12/29 04:57:17;;;;;;;4.88;1.17;;;;;;;8.77;100.00;99897.50;5027702;28;20124;-75
2022/12/29 04:59:46;;;;;;;5.40;0.95;;;;;;;8.75;100.00;99904.88;5024985;28;20136;-75
2022/12/29 05:02:11;;;;;;;5.80;1.42;;;;;;;8.78;100.00;99893.78;4992975;28;20479;-75
2022/12/29 05:04:36;;;;;;;5.32;1.25;;;;;;;8.79;99.98;99894.66;5006215;28;20026;-75
2022/12/29 05:07:02;;;;;;;4.57;1.20;;;;;;;8.73;100.00;99896.00;5039119;28;20122;-75
2022/12/29 05:09:27;;;;;;;4.28;1.25;;;;;;;8.69;99.46;99905.38;5010120;28;20030;-76
2022/12/29 05:11:53;;;;;;;6.78;1.35;;;;;;;8.63;99.57;99909.44;5016904;28;20048;-76
2022/12/29 05:14:18;;;;;;;3.25;1.20;;;;;;;8.65;98.63;99909.31;5022825;28;20030;-74
2022/12/29 05:16:43;;;;;;;6.13;1.40;;;;;;;8.62;99.31;99914.97;5007943;28;20033;-77
2022/12/29 05:19:09;;;;;;;4.80;1.10;;;;;;;8.57;98.61;99919.88;5025256;28;20428;-77
2022/12/29 05:21:34;;;;;;;4.40;1.38;;;;;;;8.57;98.72;99926.16;5025749;28;20603;-76
2022/12/29 05:24:00;;;;;;;6.35;1.30;;;;;;;8.49;98.93;99928.66;5015461;28;20037;-76
2022/12/29 05:26:26;;;;;;;6.65;1.70;;;;;;;8.54;97.96;99937.28;5006488;28;20138;-75
2022/12/29 05:29:06;;;;;;;6.65;2.20;;;;;;;8.60;97.95;99930.50;5006490;28;20381;-76
2022/12/29 05:31:32;;;;;;;6.97;1.00;;;;;;;8.64;97.95;99932.00;5002569;28;20048;-75
2022/12/29 05:33:57;;;;;;;6.00;1.00;;;;;;;8.66;97.72;99930.88;5039415;28;20034;-76
2022/12/29 05:36:23;;;;;;;5.07;1.20;;;;;;;8.69;97.14;99927.94;5014603;28;20026;-74
2022/12/29 05:38:52;;;;;;;6.30;1.33;;;;;;;8.76;96.77;99944.56;4990888;28;20030;-75
2022/12/29 05:41:17;;;;;;;3.03;1.20;;;;;;;8.79;96.74;99955.19;5007251;28;20034;-76
2022/12/29 05:43:45;;;;;;;3.20;1.05;;;;;;;8.78;96.94;99952.59;5008842;28;20038;-75
2022/12/29 05:46:28;;;;;;;4.70;1.10;;;;;;;8.78;96.58;99952.59;5018870;28;20133;-75
2022/12/29 05:49:17;;;;;;;2.67;1.30;;;;;;;8.80;96.70;99956.03;5006355;28;20056;-75
2022/12/29 05:51:54;;;;;;;8.07;1.10;;;;;;;8.80;96.35;99956.91;5005403;28;20034;-75
2022/12/29 05:54:20;;;;;;;8.38;1.35;;;;;;;8.85;96.47;99959.25;5024860;28;20038;-76
2022/12/29 05:56:46;;;;;;;3.08;1.08;;;;;;;8.85;96.17;99960.09;5006592;28;20524;-75
2022/12/29 05:59:11;;;;;;;5.75;1.15;;;;;;;8.88;95.25;99962.59;5005903;28;20040;-75
2022/12/29 06:01:37;;;;;;;2.58;1.13;;;;;;;8.92;94.65;99960.50;5038662;28;20400;-74
2022/12/29 06:04:02;;;;;;;6.85;1.38;;;;;;;8.96;94.54;99969.25;5005768;28;20533;-75
2022/12/29 06:06:28;;;;;;;5.82;1.20;;;;;;;8.97;94.21;99979.13;5049913;28;20683;-75
2022/12/29 06:08:53;;;;;;;2.95;1.00;;;;;;;9.01;93.72;99964.31;5004684;28;21626;-75
2022/12/29 06:11:19;;;;;;;7.45;1.63;;;;;;;9.01;94.09;99970.63;5013762;28;20374;-76
2022/12/29 06:13:51;;;;;;;11.80;1.40;;;;;;;9.01;93.91;99965.19;5004698;28;20041;-76
2022/12/29 06:16:16;;;;;;;4.80;1.10;;;;;;;9.01;93.66;99961.63;5017914;28;20030;-77
2022/12/29 06:18:42;;;;;;;4.22;1.20;;;;;;;9.01;93.58;99964.31;5002628;28;20507;-75
2022/12/29 06:21:08;;;;;;;2.17;1.08;;;;;;;9.02;93.13;99966.03;5005118;28;20041;-76
2022/12/29 06:23:34;;;;;;;3.90;1.10;;;;;;;9.00;93.51;99957.16;5044591;28;20088;-75
2022/12/29 06:26:00;;;;;;;2.03;1.08;;;;;;;8.99;93.32;99959.00;5009672;28;20068;-76
2022/12/29 06:28:25;;;;;;;7.95;1.50;;;;;;;9.00;93.37;99954.44;5019696;28;20144;-77
2022/12/29 06:30:51;;;;;;;4.85;1.15;;;;;;;8.99;93.00;99958.13;5037365;28;20030;-77
2022/12/29 06:33:17;;;;;;;1.55;0.88;;;;;;;8.99;93.09;99955.44;5052162;28;20098;-76
2022/12/29 06:35:43;;;;;;;2.35;1.02;;;;;;;8.94;92.52;99959.38;5004519;28;20034;-76
2022/12/29 06:38:09;;;;;;;3.95;1.05;;;;;;;8.91;92.97;99945.22;5046870;28;20045;-76
2022/12/29 06:40:34;;;;;;;6.13;1.20;;;;;;;8.87;92.57;99941.88;5010225;28;20112;-76
2022/12/29 06:43:23;;;;;;;4.35;1.02;;;;;;;8.83;92.95;99948.53;5005582;28;20072;-76
2022/12/29 06:46:11;;;;;;;4.93;1.02;;;;;;;8.84;92.45;99962.94;4997676;28;20038;-75
2022/12/29 06:48:37;;;;;;;5.55;1.35;;;;;;;8.84;92.45;99949.38;5004284;28;20076;-76
2022/12/29 06:51:02;;;;;;;10.40;1.40;;;;;;;8.85;92.90;99953.81;5004534;28;20057;-76
2022/12/29 06:53:27;;;;;;;2.22;0.70;;;;;;;8.82;92.87;99944.09;5006800;28;20532;-75
2022/12/29 06:55:53;;;;;;;7.50;1.38;;;;;;;8.85;92.59;99954.69;5009546;28;20030;-76
2022/12/29 06:58:18;;;;;;;3.95;1.45;;;;;;;8.85;92.78;99942.97;5024725;28;20366;-75
2022/12/29 07:00:44;;;;;;;4.03;2.28;;;;;;;8.87;92.80;99955.44;5015892;28;20444;-76
2022/12/29 07:03:09;;;;;;;5.00;1.30;;;;;;;8.82;93.06;99957.66;5009150;28;20082;-76
2022/12/29 07:05:34;;;;;;;6.80;1.33;;;;;;;8.84;92.68;99961.09;5008290;28;20478;-76
2022/12/29 07:08:00;;;;;;;8.52;1.63;;;;;;;8.89;92.30;99964.31;5009025;28;20037;-77
2022/12/29 07:10:26;;;;;;;1.95;1.27;;;;;;;8.93;92.47;99968.50;5010184;28;20038;-77
2022/12/29 07:12:51;;;;;;;11.55;1.73;;;;;;;8.96;91.97;99963.84;5009639;28;20080;-76
2022/12/29 07:15:16;;;;;;;5.78;1.67;;;;;;;8.99;91.61;99969.84;5049171;28;20121;-77
2022/12/29 07:17:42;;;;;;;4.07;1.50;;;;;;;9.01;91.07;99980.59;5011991;28;20445;-77
2022/12/29 07:20:08;;;;;;;4.88;1.50;;;;;;;8.99;91.11;99980.69;5009871;28;20160;-76
2022/12/29 07:22:35;;;;;;;6.80;1.48;;;;;;;8.99;90.55;99996.97;5018391;28;20041;-76
2022/12/29 07:25:00;;;;;;;15.65;2.30;;;;;;;9.01;90.09;100000.44;5011471;28;20500;-76
2022/12/29 07:27:25;;;;;;;7.50;1.17;;;;;;;9.01;89.53;100000.44;5009975;28;20042;-76
2022/12/29 07:29:51;;;;;;;5.07;1.55;;;;;;;9.01;89.99;100008.59;5024758;28;20085;-76
2022/12/29 07:32:16;;;;;;;10.68;1.80;;;;;;;9.02;89.92;100006.75;5008816;28;20441;-76
2022/12/29 07:34:41;;;;;;;7.82;1.48;;;;;;;8.99;88.98;100015.97;5008573;28;20450;-76
2022/12/29 07:37:07;;;;;;;9.35;1.75;;;;;;;8.92;88.40;100010.19;5053717;28;20449;-76
2022/12/29 07:39:32;;;;;;;8.77;1.48;;;;;;;8.86;88.33;100007.06;5009973;28;20094;-76
2022/12/29 07:41:57;;;;;;;5.30;1.65;;;;;;;8.87;87.63;100006.13;5009688;28;20037;-76
2022/12/29 07:44:24;;;;;;;8.88;1.20;;;;;;;8.85;87.84;100013.47;5008294;28;20037;-76
2022/12/29 07:46:57;;;;;;;15.25;1.77;;;;;;;8.85;88.08;100014.34;5024349;28;20402;-76
2022/12/29 07:49:23;;;;;;;6.55;1.75;;;;;;;8.88;87.99;100014.13;5008708;28;20061;-77
2022/12/29 07:51:48;;;;;;;6.63;1.58;;;;;;;8.91;87.36;100013.88;5008817;28;20022;-75
2022/12/29 07:54:14;;;;;;;5.72;1.58;;;;;;;8.92;87.95;100006.59;5013727;28;20061;-75
2022/12/29 07:56:39;;;;;;;7.88;1.60;;;;;;;8.98;87.32;100018.81;5029379;28;20021;-77
2022/12/29 07:59:05;;;;;;;11.85;1.40;;;;;;;8.99;87.32;100017.81;5029033;28;20068;-77
2022/12/29 08:01:30;;;;;;;6.13;1.80;;;;;;;8.97;87.18;100006.25;5011676;28;20527;-76
2022/12/29 08:03:55;;;;;;;11.32;1.67;;;;;;;9.03;87.93;100013.88;5040788;28;20045;-76
2022/12/29 08:06:21;;;;;;;6.63;1.67;;;;;;;9.00;88.34;100025.88;5017205;28;20493;-76
2022/12/29 08:08:46;;;;;;;5.43;1.67;;;;;;;9.03;87.79;100008.47;5009776;28;20467;-76
2022/12/29 08:11:12;;;;;;;7.53;1.67;;;;;;;9.02;88.16;100036.59;5009337;28;20050;-76
2022/12/29 08:13:37;;;;;;;6.60;1.45;;;;;;;9.04;88.37;100027.31;5007822;28;20105;-77
2022/12/29 08:16:03;;;;;;;6.82;1.40;;;;;;;9.06;87.61;100014.50;5024896;28;20122;-76
2022/12/29 08:18:28;;;;;;;4.78;1.85;;;;;;;9.09;87.70;100038.69;5010263;28;20057;-76
2022/12/29 08:20:53;;;;;;;6.75;1.30;;;;;;;9.16;87.09;100039.94;5017692;28;20029;-76
2022/12/29 08:23:19;;;;;;;7.15;1.75;;;;;;;9.25;85.17;100032.03;5027655;28;20042;-77
2022/12/29 08:25:44;;;;;;;8.00;1.35;;;;;;;9.23;85.65;100025.84;5012091;28;20041;-76
2022/12/29 08:28:10;;;;;;;8.65;1.65;;;;;;;9.23;84.92;100032.16;5007472;28;20172;-76
2022/12/29 08:30:35;;;;;;;6.50;2.00;;;;;;;9.23;85.01;100028.56;5008444;28;20080;-77
2022/12/29 08:33:01;;;;;;;6.95;1.40;;;;;;;9.26;84.81;100031.06;5019017;28;20409;-76
2022/12/29 08:35:26;;;;;;;6.75;2.50;;;;;;;9.28;84.94;100039.91;5027454;28;20036;-77
2022/12/29 08:37:51;;;;;;;6.05;1.77;;;;;;;9.29;84.34;100036.25;5016105;28;20033;-76
2022/12/29 08:40:17;;;;;;;7.10;1.13;;;;;;;9.30;83.71;100030.69;5021420;28;20785;-76
2022/12/29 08:42:43;;;;;;;12.27;1.95;;;;;;;9.33;84.02;100032.31;5024620;28;20017;-76
2022/12/29 08:45:09;;;;;;;7.25;1.52;;;;;;;9.35;84.33;100033.03;5040122;28;20049;-76
2022/12/29 08:47:34;;;;;;;9.38;1.60;;;;;;;9.35;83.94;100036.59;5008263;28;20045;-77
2022/12/29 08:50:00;;;;;;;10.70;1.58;;;;;;;9.39;83.87;100045.38;5006286;28;20402;-76
2022/12/29 08:52:25;;;;;;;10.48;2.65;;;;;;;9.41;83.50;100033.38;5007503;28;20041;-76
2022/12/29 08:54:51;;;;;;;7.85;1.58;;;;;;;9.45;83.29;100045.72;5000045;28;20030;-77
2022/12/29 08:57:17;;;;;;;7.75;1.67;;;;;;;9.47;82.80;100031.19;5007828;28;20038;-76
2022/12/29 08:59:55;;;;;;;8.25;1.88;;;;;;;9.47;83.88;100023.03;4992155;28;20064;-77
2022/12/29 09:02:20;;;;;;;10.80;1.77;;;;;;;9.47;83.72;100042.03;5023936;28;20473;-77
2022/12/29 09:04:46;;;;;;;5.82;1.85;;;;;;;9.49;82.65;100046.34;5008086;28;20083;-76
2022/12/29 09:07:11;;;;;;;10.57;2.05;;;;;;;9.50;82.82;100039.94;5014163;28;20113;-76
2022/12/29 09:09:36;;;;;;;7.18;1.65;;;;;;;9.52;82.76;100051.53;5008326;28;20037;-76
2022/12/29 09:12:02;;;;;;;4.43;1.55;;;;;;;9.53;82.77;100042.41;5007094;28;20482;-77
2022/12/29 09:14:27;;;;;;;7.57;2.20;;;;;;;9.53;82.85;100049.69;5008392;28;20485;-76
2022/12/29 09:19:38;;;;;;;13.98;2.33;;;;;;;9.48;84.36;100060.06;5007890;28;20292;-76
2022/12/29 09:22:03;;;;;;;4.18;1.30;;;;;;;9.49;84.75;100067.22;5007518;28;20505;-76
2022/12/29 09:24:29;;;;;;;5.35;1.30;;;;;;;9.47;85.34;100071.91;5006938;28;20461;-77
2022/12/29 09:26:54;;;;;;;6.63;1.50;;;;;;;9.41;86.31;100082.25;5007598;28;20034;-75
2022/12/29 09:29:19;;;;;;;6.68;1.60;;;;;;;9.36;88.33;100084.47;5008314;28;20033;-76
2022/12/29 09:31:45;;;;;;;8.80;1.42;;;;;;;9.28;88.05;100080.63;5020551;28;20038;-76
2022/12/29 09:34:10;;;;;;;5.85;1.55;;;;;;;9.22;89.06;100091.97;5005616;28;20042;-75
2022/12/29 09:36:35;;;;;;;7.15;1.65;;;;;;;9.19;88.19;100085.81;5021643;28;20103;-76
2022/12/29 09:39:01;;;;;;;5.40;1.40;;;;;;;9.17;88.35;100090.50;5023152;28;20033;-76
2022/12/29 09:41:32;;;;;;;6.88;1.85;;;;;;;9.17;88.47;100098.63;5007688;28;20029;-76
2022/12/29 09:44:17;;;;;;;7.78;1.55;;;;;;;9.22;88.59;100091.97;5007565;28;20486;-76
2022/12/29 09:46:49;;;;;;;8.20;2.13;;;;;;;9.25;88.08;100094.47;5006785;28;20603;-76
2022/12/29 09:49:45;;;;;;;5.65;1.55;;;;;;;9.27;89.30;100103.34;5025913;28;20088;-76
2022/12/29 09:52:18;;;;;;;6.95;1.50;;;;;;;9.27;89.13;100119.63;5025285;28;20037;-75
2022/12/29 09:54:57;;;;;;;5.50;1.25;;;;;;;9.23;89.69;100118.13;5004323;28;20502;-75
2022/12/29 09:57:32;;;;;;;9.20;1.55;;;;;;;9.20;90.37;100121.97;5007555;28;20045;-76
2022/12/29 10:00:19;;;;;;;9.90;1.30;;;;;;;9.18;90.15;100130.22;5008862;28;21815;-76
2022/12/29 10:02:50;;;;;;;5.05;1.25;;;;;;;9.14;91.00;100131.47;5019017;28;20479;-76
2022/12/29 10:05:31;;;;;;;4.90;1.45;;;;;;;9.14;90.48;100144.16;5010574;28;20033;-76
2022/12/29 10:08:22;;;;;;;6.97;1.60;;;;;;;9.12;90.83;100157.84;5027373;28;20048;-75
2022/12/29 10:11:05;;;;;;;8.70;2.97;;;;;;;9.10;91.48;100154.38;5022030;28;20040;-76
2022/12/29 10:13:43;;;;;;;10.52;3.60;;;;;;;9.04;92.93;100160.25;5007603;28;20037;-76
2022/12/29 10:16:26;;;;;;;6.75;1.58;;;;;;;8.99;93.48;100177.88;5012837;28;21012;-76
2022/12/29 10:19:06;;;;;;;11.25;2.42;;;;;;;8.96;93.97;100180.84;5008383;28;20300;-76
2022/12/29 10:22:04;;;;;;;11.55;2.70;;;;;;;8.92;94.53;100181.06;5006931;28;20505;-77
2022/12/29 10:24:34;;;;;;;6.90;2.28;;;;;;;8.90;95.30;100190.31;5007191;28;20076;-76
2022/12/29 10:27:00;;;;;;;4.10;1.45;;;;;;;8.86;95.71;100195.13;5005684;28;20370;-76
2022/12/29 10:29:38;;;;;;;11.90;1.65;;;;;;;8.83;95.82;100200.75;5022912;28;20499;-76
2022/12/29 10:32:23;;;;;;;12.15;2.72;;;;;;;8.82;96.34;100209.03;5008081;28;20459;-77
2022/12/29 10:34:53;;;;;;;7.72;1.58;;;;;;;8.75;97.58;100215.88;5026526;28;20493;-75
2022/12/29 10:37:42;;;;;;;12.73;1.70;;;;;;;8.69;97.75;100209.94;5012633;28;20061;-78
2022/12/29 10:40:35;;;;;;;6.38;1.70;;;;;;;8.67;98.25;100202.88;5028501;28;20120;-76
2022/12/29 10:43:12;;;;;;;9.55;1.75;;;;;;;8.65;99.20;100215.69;5019543;28;20046;-75
2022/12/29 10:45:39;;;;;;;4.55;1.80;;;;;;;8.61;98.93;100228.63;5000498;28;20033;-77
2022/12/29 10:48:08;;;;;;;8.98;2.00;;;;;;;8.61;99.05;100231.31;5017992;28;20049;-76
2022/12/29 10:50:34;;;;;;;16.73;2.25;;;;;;;8.62;99.76;100234.91;5009484;28;20112;-78
2022/12/29 10:53:04;;;;;;;9.82;2.15;;;;;;;8.62;99.26;100229.47;5009831;28;20474;-76
2022/12/29 10:55:36;;;;;;;14.85;2.33;;;;;;;8.63;98.47;100233.94;5010854;28;20065;-77
2022/12/29 10:58:04;;;;;;;7.47;1.65;;;;;;;8.66;98.75;100229.13;5009896;28;20458;-75
2022/12/29 11:00:30;;;;;;;5.93;1.63;;;;;;;8.69;99.07;100238.91;5010662;28;20049;-77
2022/12/29 11:03:41;;;;;;;9.73;2.22;;;;;;;8.75;98.11;100248.41;5010825;28;20456;-76
2022/12/29 11:06:25;;;;;;;7.93;1.77;;;;;;;8.76;97.93;100250.16;5020094;28;20048;-76
2022/12/29 11:08:58;;;;;;;5.70;1.73;;;;;;;8.73;98.06;100253.97;5016595;28;20042;-76
2022/12/29 11:11:33;;;;;;;11.20;2.03;;;;;;;8.67;98.78;100268.84;5030557;28;20595;-75
2022/12/29 11:14:13;;;;;;;9.23;2.85;;;;;;;8.64;99.58;100257.38;5030218;28;20052;-75
2022/12/29 11:16:41;;;;;;;10.00;2.22;;;;;;;8.62;99.50;100259.31;5013404;28;20153;-75
2022/12/29 11:19:19;;;;;;;9.13;1.95;;;;;;;8.65;99.41;100259.94;5009293;28;20049;-76
2022/12/29 11:21:45;;;;;;;12.20;2.63;;;;;;;8.65;98.45;100259.09;5010090;28;20553;-76
2022/12/29 11:24:25;;;;;;;9.15;2.50;;;;;;;8.64;98.37;100268.22;5012902;28;20030;-76
2022/12/29 11:27:15;;;;;;;7.75;1.98;;;;;;;8.64;98.51;100277.19;5029934;28;20045;-77
2022/12/29 11:29:42;;;;;;;8.57;2.38;;;;;;;8.67;98.67;100277.00;5029560;28;20045;-75
2022/12/29 11:32:19;;;;;;;8.93;2.22;;;;;;;8.72;97.82;100271.22;5012122;28;20111;-77
2022/12/29 11:34:45;;;;;;;7.65;2.10;;;;;;;8.83;98.07;100274.00;5014121;28;20042;-77
2022/12/29 11:37:13;;;;;;;11.80;2.60;;;;;;;8.93;97.45;100282.31;5020709;28;20591;-76
2022/12/29 11:39:58;;;;;;;12.13;2.08;;;;;;;9.00;97.33;100274.56;5009846;28;20030;-76
2022/12/29 11:42:36;;;;;;;7.88;2.53;;;;;;;9.02;96.70;100275.34;5009078;28;20132;-76
2022/12/29 11:45:14;;;;;;;10.32;2.53;;;;;;;9.02;95.43;100284.34;5011735;28;20521;-77
2022/12/29 11:47:44;;;;;;;9.13;1.75;;;;;;;9.02;94.80;100280.75;5020224;28;20446;-76
2022/12/29 11:50:23;;;;;;;9.43;1.88;;;;;;;9.00;95.07;100289.03;5009234;28;20073;-76
2022/12/29 11:52:57;;;;;;;7.70;2.55;;;;;;;8.99;94.51;100289.13;5008181;28;20446;-75
2022/12/29 11:55:25;;;;;;;9.23;2.15;;;;;;;8.98;94.56;100303.66;5017604;28;20050;-76
2022/12/29 11:57:54;;;;;;;13.98;2.30;;;;;;;8.96;94.69;100301.09;5009646;28;20037;-77
2022/12/29 12:00:24;;;;;;;10.18;2.08;;;;;;;8.99;94.75;100303.53;5018424;28;20038;-75
2022/12/29 12:03:08;;;;;;;11.68;2.22;;;;;;;8.99;95.15;100300.84;5008387;28;20034;-75
2022/12/29 12:05:41;;;;;;;3.05;1.60;;;;;;;8.99;94.99;100303.53;5009767;28;20042;-76
2022/12/29 12:08:16;;;;;;;10.63;2.25;;;;;;;9.00;94.54;100296.28;5009198;28;20398;-76
2022/12/29 12:10:58;;;;;;;12.13;3.05;;;;;;;9.01;94.70;100304.31;5009506;28;20362;-76
2022/12/29 12:13:31;;;;;;;13.23;2.78;;;;;;;9.09;94.20;100310.03;5008116;28;20061;-77
2022/12/29 12:16:12;;;;;;;7.93;1.92;;;;;;;9.14;93.56;100305.13;5022430;28;20037;-76
2022/12/29 12:19:04;;;;;;;11.95;1.98;;;;;;;9.13;93.29;100303.38;5011731;28;20498;-76
2022/12/29 12:21:37;;;;;;;10.35;2.90;;;;;;;9.14;92.80;100309.69;5007200;28;20042;-77
2022/12/29 12:24:44;;;;;;;16.05;2.15;;;;;;;9.14;93.19;100309.69;5040740;28;20129;-76
2022/12/29 12:27:18;;;;;;;12.88;3.58;;;;;;;9.14;92.40;100306.97;5009029;28;20060;-77
2022/12/29 12:29:59;;;;;;;9.32;1.80;;;;;;;9.15;92.03;100303.28;5008007;28;20517;-76